Time;durP1;ratioP1;P1;durP2;ratioP2;P2;SDS_P1;SDS_P2;PMS_P1;PMS_P2;Temp;Humidity;BMP_temperature;BMP_pressure;BME280_temperature;BME280_humidity;BME280_pressure;Samples;Min_cycle;Max_cycle;Signal;HPM_P1;HPM_P2
2021/06/30 00:00:11;;;;;;;56.67;28.35;;;15.20;99.90;;;;;;5082144;28;20116;-77
2021/06/30 00:02:37;;;;;;;53.45;27.13;;;15.10;99.90;;;;;;5064898;28;20060;-78
2021/06/30 00:05:06;;;;;;;54.25;26.75;;;15.10;99.90;;;;;;5085201;28;20081;-78
2021/06/30 00:07:36;;;;;;;62.70;28.83;;;15.20;99.90;;;;;;5084461;28;20047;-77
2021/06/30 00:10:05;;;;;;;58.95;28.27;;;15.20;99.90;;;;;;5083158;28;20044;-76
2021/06/30 00:12:31;;;;;;;39.60;21.73;;;15.10;99.90;;;;;;5083255;28;20115;-76
2021/06/30 00:15:01;;;;;;;54.92;26.10;;;15.10;99.90;;;;;;5083871;28;20055;-78
2021/06/30 00:17:28;;;;;;;51.72;25.83;;;15.10;99.90;;;;;;5080002;28;20055;-77
2021/06/30 00:19:54;;;;;;;51.20;26.08;;;15.10;99.90;;;;;;5083281;28;20044;-77
2021/06/30 00:22:19;;;;;;;52.75;27.10;;;15.10;99.90;;;;;;5079744;28;20039;-78
2021/06/30 00:24:46;;;;;;;57.85;28.23;;;15.10;99.90;;;;;;5083852;28;20044;-77
2021/06/30 00:27:12;;;;;;;54.45;26.42;;;15.10;99.90;;;;;;5081617;28;20032;-79
2021/06/30 00:29:38;;;;;;;59.33;29.50;;;15.10;99.90;;;;;;5077455;28;20122;-77
2021/06/30 00:32:04;;;;;;;60.17;29.10;;;15.10;99.90;;;;;;5082943;28;20137;-78
2021/06/30 00:34:30;;;;;;;61.65;28.80;;;15.10;99.90;;;;;;5062486;28;20036;-78
2021/06/30 00:36:56;;;;;;;65.00;30.73;;;15.20;99.90;;;;;;5082772;28;20040;-77
2021/06/30 00:39:25;;;;;;;78.88;30.75;;;15.20;99.90;;;;;;5082729;28;20119;-77
2021/06/30 00:41:51;;;;;;;48.35;26.75;;;15.10;99.90;;;;;;5082287;28;20039;-77
2021/06/30 00:44:17;;;;;;;63.35;29.80;;;15.00;99.90;;;;;;5080748;28;20044;-76
2021/06/30 00:46:46;;;;;;;81.80;32.70;;;15.00;99.90;;;;;;5065723;28;20040;-77
2021/06/30 00:49:12;;;;;;;70.47;31.48;;;15.00;99.90;;;;;;5064145;28;20032;-77
2021/06/30 00:51:38;;;;;;;76.00;31.10;;;15.00;99.90;;;;;;5080792;28;20070;-77
2021/06/30 00:54:04;;;;;;;54.47;29.75;;;15.00;99.90;;;;;;5081998;28;20044;-77
2021/06/30 00:56:29;;;;;;;65.63;32.30;;;15.00;99.90;;;;;;5080472;28;20523;-76
2021/06/30 00:58:57;;;;;;;72.68;33.67;;;15.00;99.90;;;;;;5081264;28;20048;-74
2021/06/30 01:01:25;;;;;;;78.25;32.95;;;15.00;99.90;;;;;;5082965;28;20259;-73
2021/06/30 01:03:51;;;;;;;68.72;32.45;;;15.00;99.90;;;;;;5081589;28;20109;-72
2021/06/30 01:06:18;;;;;;;56.85;30.80;;;15.00;99.90;;;;;;5081433;28;20040;-76
2021/06/30 01:08:44;;;;;;;78.32;32.55;;;15.00;99.90;;;;;;5077969;28;20055;-77
2021/06/30 01:11:11;;;;;;;79.65;32.90;;;15.00;99.90;;;;;;5086754;28;20040;-77
2021/06/30 01:13:41;;;;;;;61.75;32.28;;;15.00;99.90;;;;;;5079413;28;20123;-78
2021/06/30 01:16:10;;;;;;;72.43;32.50;;;15.00;99.90;;;;;;5076698;28;20036;-76
2021/06/30 01:18:37;;;;;;;65.45;31.33;;;15.00;99.90;;;;;;5080316;28;20113;-77
2021/06/30 01:21:07;;;;;;;71.40;32.45;;;14.90;99.90;;;;;;5067055;28;20047;-77
2021/06/30 01:23:34;;;;;;;65.18;30.85;;;14.90;99.90;;;;;;5087634;28;20461;-77
2021/06/30 01:25:59;;;;;;;58.85;29.88;;;15.00;99.90;;;;;;5079639;28;20472;-78
2021/06/30 01:28:31;;;;;;;61.90;29.42;;;15.00;99.90;;;;;;5066762;28;20491;-77
2021/06/30 01:31:01;;;;;;;63.83;31.08;;;15.00;99.90;;;;;;5084829;28;20036;-77
2021/06/30 01:33:30;;;;;;;65.43;31.50;;;15.00;99.90;;;;;;5080915;28;20043;-78
2021/06/30 01:35:56;;;;;;;60.60;29.60;;;15.00;99.90;;;;;;5082866;28;20036;-77
2021/06/30 01:38:29;;;;;;;57.72;30.23;;;15.00;99.90;;;;;;5085488;28;20048;-78
2021/06/30 01:40:57;;;;;;;61.70;30.75;;;15.00;99.90;;;;;;5083319;28;20498;-78
2021/06/30 01:43:24;;;;;;;64.70;29.45;;;15.00;99.90;;;;;;5086070;28;20036;-78
2021/06/30 01:45:54;;;;;;;56.38;29.52;;;14.90;99.90;;;;;;5085939;28;20117;-77
2021/06/30 01:48:20;;;;;;;58.72;29.02;;;15.00;99.90;;;;;;5088545;28;20039;-78
2021/06/30 01:50:52;;;;;;;62.05;30.00;;;15.00;99.90;;;;;;5081678;28;20043;-78
2021/06/30 01:53:18;;;;;;;60.63;29.83;;;15.00;99.90;;;;;;5084547;28;20044;-78
2021/06/30 01:55:44;;;;;;;69.28;30.52;;;15.10;99.90;;;;;;5084007;28;20036;-78
2021/06/30 01:58:10;;;;;;;67.53;30.42;;;15.00;99.90;;;;;;5082885;28;20437;-78
2021/06/30 02:00:36;;;;;;;68.43;29.75;;;14.90;99.90;;;;;;5083154;28;20119;-73
2021/06/30 02:03:02;;;;;;;70.03;31.00;;;14.90;99.90;;;;;;5082054;28;20119;-73
2021/06/30 02:05:29;;;;;;;59.33;28.85;;;14.90;99.90;;;;;;5054454;28;20032;-73
2021/06/30 02:08:01;;;;;;;59.67;30.42;;;14.90;99.90;;;;;;5081405;28;20126;-73
2021/06/30 02:10:28;;;;;;;66.63;30.08;;;14.90;99.90;;;;;;5082379;28;20040;-73
2021/06/30 02:12:55;;;;;;;67.40;30.05;;;14.90;99.90;;;;;;5075716;28;20040;-73
2021/06/30 02:15:30;;;;;;;69.32;30.02;;;14.80;99.90;;;;;;5085099;28;20032;-74
2021/06/30 02:17:59;;;;;;;64.97;27.50;;;14.90;99.90;;;;;;5083006;28;20695;-73
2021/06/30 02:20:26;;;;;;;59.38;29.13;;;14.80;99.90;;;;;;5084905;28;20028;-74
2021/06/30 02:22:52;;;;;;;65.80;31.77;;;14.90;99.90;;;;;;5081679;28;20630;-73
2021/06/30 02:25:22;;;;;;;60.47;28.55;;;14.80;99.90;;;;;;5085775;28;20130;-73
2021/06/30 02:27:48;;;;;;;57.17;29.10;;;14.80;99.90;;;;;;5083657;28;20549;-73
2021/06/30 02:30:26;;;;;;;50.10;28.13;;;14.70;99.90;;;;;;5084765;28;20047;-73
2021/06/30 02:32:52;;;;;;;61.90;27.52;;;14.80;99.90;;;;;;5085483;28;20066;-78
2021/06/30 02:35:22;;;;;;;56.90;27.50;;;14.70;99.90;;;;;;5086268;28;20036;-77
2021/06/30 02:37:50;;;;;;;54.47;27.20;;;14.80;99.90;;;;;;5083233;28;20559;-78
2021/06/30 02:40:18;;;;;;;49.35;26.08;;;14.80;99.90;;;;;;5085719;28;20085;-76
2021/06/30 02:42:44;;;;;;;53.00;26.17;;;14.80;99.90;;;;;;5065642;28;20036;-76
2021/06/30 02:45:13;;;;;;;49.13;25.45;;;14.70;99.90;;;;;;5083386;28;20049;-77
2021/06/30 02:47:41;;;;;;;50.00;25.42;;;14.70;99.90;;;;;;5084357;28;20549;-77
2021/06/30 02:50:09;;;;;;;52.58;24.33;;;14.70;99.90;;;;;;5083011;28;20091;-78
2021/06/30 02:52:37;;;;;;;39.80;21.98;;;14.70;99.90;;;;;;5080832;28;20036;-73
2021/06/30 02:55:05;;;;;;;34.10;20.20;;;14.70;99.90;;;;;;5082449;28;20079;-77
2021/06/30 02:57:31;;;;;;;36.45;21.15;;;14.60;99.90;;;;;;5081992;28;20127;-76
2021/06/30 03:00:00;;;;;;;39.08;22.00;;;14.70;99.90;;;;;;5083237;28;20111;-77
2021/06/30 03:02:26;;;;;;;42.35;21.83;;;14.70;99.90;;;;;;5082990;28;20490;-77
2021/06/30 03:04:52;;;;;;;43.33;21.42;;;14.60;99.90;;;;;;5084427;28;20044;-78
2021/06/30 03:07:18;;;;;;;33.05;20.40;;;14.60;99.90;;;;;;5082175;28;20072;-76
2021/06/30 03:09:44;;;;;;;32.67;18.38;;;14.70;99.90;;;;;;5083334;28;20046;-78
2021/06/30 03:12:10;;;;;;;34.50;20.48;;;14.70;99.90;;;;;;5065208;28;20691;-77
2021/06/30 03:14:36;;;;;;;32.53;19.50;;;14.70;99.90;;;;;;5086280;28;20082;-77
2021/06/30 03:17:02;;;;;;;28.95;18.92;;;14.70;99.90;;;;;;5068026;28;20067;-77
2021/06/30 03:19:30;;;;;;;33.33;20.27;;;14.70;99.90;;;;;;5081449;28;20066;-77
2021/06/30 03:21:57;;;;;;;35.55;19.63;;;14.60;99.90;;;;;;5085583;28;20058;-77
2021/06/30 03:24:25;;;;;;;29.25;19.30;;;14.60;99.90;;;;;;5083670;28;20108;-76
2021/06/30 03:26:51;;;;;;;32.55;20.67;;;14.60;99.90;;;;;;5087293;28;20040;-77
2021/06/30 03:29:16;;;;;;;38.50;22.10;;;14.60;99.90;;;;;;5062992;28;20040;-76
2021/06/30 03:31:43;;;;;;;28.23;19.95;;;14.60;99.90;;;;;;5081963;28;20056;-77
2021/06/30 03:34:09;;;;;;;32.63;19.77;;;14.50;99.90;;;;;;5079005;28;20056;-77
2021/06/30 03:36:34;;;;;;;33.75;20.98;;;14.60;99.90;;;;;;5085220;28;20090;-77
2021/06/30 03:39:01;;;;;;;36.63;21.92;;;14.60;99.90;;;;;;5082904;28;20052;-81
2021/06/30 03:41:27;;;;;;;38.60;22.90;;;14.60;99.90;;;;;;5083187;28;20036;-78
2021/06/30 03:43:55;;;;;;;42.33;22.30;;;14.60;99.90;;;;;;5081896;28;20036;-78
2021/06/30 03:46:21;;;;;;;36.63;21.80;;;14.50;99.90;;;;;;5079368;28;20063;-77
2021/06/30 03:48:47;;;;;;;35.65;21.88;;;14.50;99.90;;;;;;5083379;28;20422;-78
2021/06/30 03:51:12;;;;;;;39.78;22.63;;;14.50;99.90;;;;;;5080516;28;20040;-78
2021/06/30 03:53:38;;;;;;;37.63;22.38;;;14.60;99.90;;;;;;5081795;28;20632;-76
2021/06/30 03:56:04;;;;;;;35.58;23.38;;;14.60;99.90;;;;;;5063171;28;20056;-77
2021/06/30 03:58:30;;;;;;;38.72;22.92;;;14.60;99.90;;;;;;5083278;28;20047;-78
2021/06/30 04:00:57;;;;;;;38.88;23.25;;;14.50;99.90;;;;;;5077329;28;20044;-77
2021/06/30 04:03:24;;;;;;;33.92;22.55;;;14.50;99.90;;;;;;5082428;28;20036;-78
2021/06/30 04:05:49;;;;;;;36.05;22.65;;;14.50;99.90;;;;;;5064761;28;20036;-78
2021/06/30 04:08:15;;;;;;;38.80;21.77;;;14.60;99.90;;;;;;5080564;28;20051;-76
2021/06/30 04:10:42;;;;;;;39.17;22.85;;;14.60;99.90;;;;;;5081387;28;20036;-77
2021/06/30 04:13:11;;;;;;;32.83;21.20;;;14.50;99.90;;;;;;5078939;28;20035;-77
2021/06/30 04:15:37;;;;;;;31.52;20.75;;;14.60;99.90;;;;;;5082676;28;20046;-72
2021/06/30 04:18:06;;;;;;;39.25;23.15;;;14.50;99.90;;;;;;5081361;28;20600;-73
2021/06/30 04:20:32;;;;;;;36.30;20.95;;;14.60;99.90;;;;;;5084422;28;20036;-72
2021/06/30 04:22:58;;;;;;;34.38;19.85;;;14.50;99.90;;;;;;5065324;28;20051;-72
2021/06/30 04:25:24;;;;;;;37.38;20.95;;;14.70;99.90;;;;;;5078299;28;20036;-73
2021/06/30 04:27:50;;;;;;;38.28;21.00;;;14.60;99.90;;;;;;5066039;28;20097;-79
2021/06/30 04:30:19;;;;;;;31.77;19.33;;;14.60;99.90;;;;;;5080575;28;20485;-76
2021/06/30 04:32:46;;;;;;;36.83;20.55;;;14.50;99.90;;;;;;5064811;28;20474;-78
2021/06/30 04:35:13;;;;;;;38.17;21.45;;;14.50;99.90;;;;;;5061935;28;20066;-78
2021/06/30 04:37:38;;;;;;;39.80;21.48;;;14.60;99.90;;;;;;5047192;28;20040;-78
2021/06/30 04:40:08;;;;;;;36.80;20.80;;;14.50;99.90;;;;;;5082393;28;20388;-77
2021/06/30 04:42:34;;;;;;;37.63;21.65;;;14.50;99.90;;;;;;5080727;28;20075;-78
2021/06/30 04:44:59;;;;;;;35.00;20.80;;;14.50;99.90;;;;;;5080863;28;20466;-77
2021/06/30 04:47:25;;;;;;;34.45;20.10;;;14.50;99.90;;;;;;5061066;28;20155;-77
2021/06/30 04:49:51;;;;;;;39.63;22.23;;;14.50;99.90;;;;;;5064967;28;20043;-77
2021/06/30 04:52:17;;;;;;;34.08;21.42;;;14.50;99.90;;;;;;5078812;28;20036;-77
2021/06/30 04:54:43;;;;;;;34.78;20.15;;;14.50;99.90;;;;;;5076352;28;20078;-77
2021/06/30 04:57:09;;;;;;;39.72;21.35;;;14.50;99.90;;;;;;5086052;28;20123;-78
2021/06/30 04:59:41;;;;;;;40.45;22.33;;;14.50;99.90;;;;;;5083838;28;20055;-80
2021/06/30 05:02:10;;;;;;;38.42;21.50;;;14.50;99.90;;;;;;5080944;28;20047;-77
2021/06/30 05:04:36;;;;;;;39.65;21.58;;;14.50;99.90;;;;;;5067468;28;20043;-77
2021/06/30 05:07:02;;;;;;;38.70;22.88;;;14.50;99.90;;;;;;5080591;28;20059;-76
2021/06/30 05:09:28;;;;;;;40.00;22.90;;;14.50;99.90;;;;;;5066135;28;20127;-77
2021/06/30 05:11:54;;;;;;;45.75;22.17;;;14.50;99.90;;;;;;5046305;28;20067;-77
2021/06/30 05:14:19;;;;;;;38.17;21.25;;;14.50;99.90;;;;;;5064329;28;20093;-78
2021/06/30 05:16:45;;;;;;;34.15;21.05;;;14.50;99.90;;;;;;5079960;28;20086;-78
2021/06/30 05:19:12;;;;;;;38.88;21.70;;;14.50;99.90;;;;;;5083778;28;20058;-77
2021/06/30 05:21:38;;;;;;;38.85;21.55;;;14.50;99.90;;;;;;5080813;28;20539;-80
2021/06/30 05:24:04;;;;;;;38.28;20.88;;;14.50;99.90;;;;;;5064668;28;20048;-78
2021/06/30 05:26:29;;;;;;;38.33;20.52;;;14.60;99.90;;;;;;5079216;28;20031;-76
2021/06/30 05:28:55;;;;;;;32.03;18.10;;;14.50;99.90;;;;;;5084809;28;20048;-77
2021/06/30 05:31:21;;;;;;;35.42;19.65;;;14.60;99.90;;;;;;5062242;28;20093;-78
2021/06/30 05:33:47;;;;;;;36.85;21.90;;;14.70;99.90;;;;;;5083802;28;20490;-77
2021/06/30 05:36:13;;;;;;;42.20;21.17;;;14.60;99.90;;;;;;5080833;28;20036;-78
2021/06/30 05:38:39;;;;;;;39.88;22.08;;;14.60;99.90;;;;;;5048887;28;20074;-79
2021/06/30 05:41:05;;;;;;;38.58;20.27;;;14.50;99.90;;;;;;5077877;28;20105;-78
2021/06/30 05:43:31;;;;;;;36.50;21.27;;;14.50;99.90;;;;;;5076982;28;20466;-78
2021/06/30 05:46:00;;;;;;;41.63;20.73;;;14.50;99.90;;;;;;5062212;28;20060;-77
2021/06/30 05:48:26;;;;;;;33.63;19.25;;;14.50;99.90;;;;;;5082008;28;20221;-78
2021/06/30 05:50:51;;;;;;;40.28;20.55;;;14.50;99.90;;;;;;5079897;28;20559;-78
2021/06/30 05:53:17;;;;;;;33.67;18.77;;;14.50;99.90;;;;;;5077133;28;20032;-78
2021/06/30 05:55:44;;;;;;;32.95;19.17;;;14.50;99.90;;;;;;5082009;28;20076;-78
2021/06/30 05:58:09;;;;;;;30.88;19.45;;;14.50;99.90;;;;;;5079978;28;20067;-78
2021/06/30 06:00:35;;;;;;;33.22;19.98;;;14.50;99.90;;;;;;5081913;28;20684;-79
2021/06/30 06:03:01;;;;;;;32.60;18.73;;;14.50;99.90;;;;;;5066772;28;20053;-78
2021/06/30 06:05:30;;;;;;;29.40;19.52;;;14.50;99.90;;;;;;5084134;28;20087;-79
2021/06/30 06:07:56;;;;;;;41.35;21.17;;;14.40;99.90;;;;;;5060186;28;20052;-78
2021/06/30 06:10:22;;;;;;;36.53;20.00;;;14.50;99.90;;;;;;5082049;28;20039;-79
2021/06/30 06:12:48;;;;;;;35.08;19.98;;;14.50;99.90;;;;;;5065116;28;20831;-79
2021/06/30 06:15:13;;;;;;;34.60;18.75;;;14.50;99.90;;;;;;5065221;28;20212;-78
2021/06/30 06:17:39;;;;;;;37.75;20.80;;;14.50;99.90;;;;;;5082310;28;20055;-79
2021/06/30 06:20:10;;;;;;;34.90;20.55;;;14.50;99.90;;;;;;5078779;28;20122;-77
2021/06/30 06:22:36;;;;;;;33.85;20.38;;;14.60;99.90;;;;;;5082319;28;20047;-79
2021/06/30 06:25:04;;;;;;;33.40;19.23;;;14.50;99.90;;;;;;5083180;28;20674;-77
2021/06/30 06:27:31;;;;;;;35.83;20.30;;;14.50;99.90;;;;;;5083964;28;20441;-78
2021/06/30 06:29:57;;;;;;;35.13;20.67;;;14.60;99.90;;;;;;5080509;28;20040;-79
2021/06/30 06:32:26;;;;;;;31.90;18.92;;;14.60;99.90;;;;;;5081576;28;20111;-78
2021/06/30 06:34:52;;;;;;;32.53;20.90;;;14.60;99.90;;;;;;5081601;28;20118;-79
2021/06/30 06:37:21;;;;;;;30.65;19.73;;;14.70;99.90;;;;;;5081381;28;20184;-78
2021/06/30 06:39:47;;;;;;;32.88;20.92;;;14.70;99.90;;;;;;5068108;28;20044;-78
2021/06/30 06:42:13;;;;;;;43.40;21.45;;;14.70;99.90;;;;;;5081594;28;20032;-78
2021/06/30 06:44:40;;;;;;;36.80;20.95;;;14.70;99.90;;;;;;5083829;28;20051;-79
2021/06/30 06:47:07;;;;;;;42.22;22.27;;;14.70;99.90;;;;;;5086604;28;20032;-79
2021/06/30 06:49:33;;;;;;;39.45;22.45;;;14.80;99.90;;;;;;5084209;28;20141;-79
2021/06/30 06:52:01;;;;;;;41.80;20.98;;;14.70;99.90;;;;;;5081808;28;20593;-78
2021/06/30 06:54:28;;;;;;;32.47;19.42;;;14.80;99.90;;;;;;5086756;28;20036;-77
2021/06/30 06:56:54;;;;;;;36.05;20.75;;;14.80;99.90;;;;;;5068535;28;20151;-77
2021/06/30 06:59:20;;;;;;;35.15;19.40;;;14.80;99.90;;;;;;5085591;28;20039;-77
2021/06/30 07:01:46;;;;;;;32.33;19.40;;;14.80;99.90;;;;;;5085656;28;20444;-77
2021/06/30 07:04:12;;;;;;;34.22;19.77;;;14.80;99.90;;;;;;5083667;28;20111;-77
2021/06/30 07:06:38;;;;;;;28.02;18.30;;;14.90;99.90;;;;;;5081948;28;20946;-77
2021/06/30 07:09:05;;;;;;;36.70;19.25;;;14.90;99.90;;;;;;5084025;28;20047;-77
2021/06/30 07:11:31;;;;;;;32.42;18.35;;;14.90;99.90;;;;;;5084842;28;20048;-78
2021/06/30 07:14:00;;;;;;;35.08;19.70;;;15.00;99.90;;;;;;5085175;28;20050;-77
2021/06/30 07:16:26;;;;;;;39.92;19.45;;;15.00;99.90;;;;;;5066404;28;20391;-77
2021/06/30 07:18:52;;;;;;;38.88;19.27;;;15.00;99.90;;;;;;5082785;28;20036;-77
2021/06/30 07:21:18;;;;;;;30.77;18.67;;;14.90;99.90;;;;;;5043981;28;20398;-78
2021/06/30 07:23:44;;;;;;;38.65;20.85;;;15.00;99.90;;;;;;5082086;28;20039;-78
2021/06/30 07:26:12;;;;;;;39.83;17.98;;;15.00;99.90;;;;;;5082765;28;20036;-78
2021/06/30 07:28:41;;;;;;;29.52;18.10;;;15.00;99.90;;;;;;5082394;28;20036;-78
2021/06/30 07:31:07;;;;;;;28.30;16.42;;;15.10;99.90;;;;;;5062890;28;20541;-78
2021/06/30 07:33:37;;;;;;;27.52;17.85;;;15.10;99.90;;;;;;5081047;28;20060;-78
2021/06/30 07:36:03;;;;;;;28.80;16.00;;;15.10;99.90;;;;;;5082404;28;20040;-77
2021/06/30 07:38:29;;;;;;;30.83;15.57;;;15.20;99.90;;;;;;5076611;28;20055;-78
2021/06/30 07:40:55;;;;;;;25.13;13.98;;;15.20;99.90;;;;;;5082758;28;20036;-78
2021/06/30 07:43:21;;;;;;;24.13;16.05;;;15.20;99.90;;;;;;5083790;28;20032;-78
2021/06/30 07:45:47;;;;;;;28.30;16.23;;;15.20;99.90;;;;;;5082300;28;20036;-77
2021/06/30 07:48:13;;;;;;;29.48;15.95;;;15.20;99.90;;;;;;5082025;28;20130;-78
2021/06/30 07:50:39;;;;;;;23.80;12.95;;;15.30;99.90;;;;;;5064344;28;20035;-77
2021/06/30 07:53:04;;;;;;;20.83;12.50;;;15.40;99.90;;;;;;5065223;28;20052;-78
2021/06/30 07:55:31;;;;;;;24.10;12.32;;;15.30;99.90;;;;;;5080562;28;20478;-78
2021/06/30 07:58:01;;;;;;;26.00;13.23;;;15.40;99.90;;;;;;5080380;28;20039;-78
2021/06/30 08:00:26;;;;;;;21.88;13.07;;;15.40;99.90;;;;;;5084712;28;20046;-78
2021/06/30 08:02:52;;;;;;;23.25;12.98;;;15.40;99.90;;;;;;5079854;28;20031;-77
2021/06/30 08:05:20;;;;;;;22.48;14.07;;;15.50;99.90;;;;;;5076847;28;20039;-78
2021/06/30 08:07:45;;;;;;;21.35;13.70;;;15.50;99.90;;;;;;5082454;28;20059;-78
2021/06/30 08:10:11;;;;;;;23.23;13.57;;;15.50;99.90;;;;;;5058917;28;20059;-77
2021/06/30 08:12:37;;;;;;;27.25;13.02;;;15.60;99.90;;;;;;5084489;28;20033;-78
2021/06/30 08:15:05;;;;;;;24.75;14.00;;;15.60;99.90;;;;;;5081174;28;20148;-77
2021/06/30 08:17:31;;;;;;;19.13;14.07;;;15.70;99.90;;;;;;5081137;28;21515;-78
2021/06/30 08:19:58;;;;;;;28.00;14.32;;;15.60;99.90;;;;;;5079199;28;20491;-78
2021/06/30 08:22:24;;;;;;;22.63;13.93;;;15.60;99.90;;;;;;5077873;28;20043;-77
2021/06/30 08:24:50;;;;;;;28.85;17.42;;;15.60;99.90;;;;;;5092579;28;20044;-77
2021/06/30 08:27:19;;;;;;;22.15;14.20;;;15.60;99.90;;;;;;5076796;28;20044;-77
2021/06/30 08:29:45;;;;;;;26.98;15.63;;;15.60;99.90;;;;;;5079856;28;20032;-79
2021/06/30 08:32:11;;;;;;;23.63;15.95;;;15.70;99.90;;;;;;5076049;28;20133;-81
2021/06/30 08:34:37;;;;;;;22.30;15.55;;;15.70;99.90;;;;;;5082508;28;20048;-78
2021/06/30 08:37:07;;;;;;;24.65;15.32;;;15.70;99.90;;;;;;5061130;28;20047;-78
2021/06/30 08:39:34;;;;;;;23.55;15.05;;;15.70;99.90;;;;;;5084074;28;20138;-80
2021/06/30 08:42:00;;;;;;;24.13;16.45;;;15.60;99.90;;;;;;5066468;28;20039;-78
2021/06/30 08:44:26;;;;;;;29.45;16.20;;;15.60;99.90;;;;;;5077631;28;20044;-78
2021/06/30 08:46:56;;;;;;;22.08;14.93;;;15.60;99.90;;;;;;5085444;28;20372;-78
2021/06/30 08:49:26;;;;;;;23.52;14.52;;;15.70;99.90;;;;;;5078787;28;20465;-82
2021/06/30 08:51:54;;;;;;;20.85;13.95;;;15.80;99.90;;;;;;5085177;28;20038;-79
2021/06/30 08:54:21;;;;;;;17.50;13.45;;;15.80;99.90;;;;;;5082838;28;20395;-78
2021/06/30 08:56:48;;;;;;;20.60;13.75;;;15.70;99.90;;;;;;5084062;28;20032;-79
2021/06/30 08:59:14;;;;;;;18.88;12.65;;;15.70;99.90;;;;;;5084575;28;20047;-80
2021/06/30 09:01:40;;;;;;;20.67;11.77;;;15.70;99.90;;;;;;5079595;28;20044;-78
2021/06/30 09:04:07;;;;;;;18.40;10.93;;;15.70;99.90;;;;;;5084253;28;20520;-79
2021/06/30 09:06:40;;;;;;;21.75;10.35;;;15.70;99.90;;;;;;5083998;28;20044;-79
2021/06/30 09:09:14;;;;;;;16.77;11.52;;;15.60;99.90;;;;;;5098033;28;20044;-78
2021/06/30 09:11:54;;;;;;;20.00;10.70;;;15.60;99.90;;;;;;5084857;28;20119;-79
2021/06/30 09:14:35;;;;;;;18.80;11.30;;;15.70;99.90;;;;;;5080843;28;20032;-79
2021/06/30 09:17:10;;;;;;;16.52;9.73;;;15.60;99.90;;;;;;5078538;28;20956;-78
2021/06/30 09:19:50;;;;;;;13.38;9.68;;;15.70;99.90;;;;;;5082376;28;20036;-78
2021/06/30 09:22:17;;;;;;;;;;;15.80;99.90;;;;;;5079753;28;20040;-78
2021/06/30 09:24:45;;;;;;;13.90;9.70;;;15.80;99.90;;;;;;5081411;28;19924;-78
2021/06/30 09:27:14;;;;;;;11.57;8.75;;;15.80;99.90;;;;;;5081779;28;20089;-79
2021/06/30 09:29:41;;;;;;;12.57;8.37;;;15.90;99.10;;;;;;5081415;28;20542;-78
2021/06/30 09:32:13;;;;;;;13.75;9.90;;;15.90;99.60;;;;;;5086856;28;20047;-79
2021/06/30 09:34:40;;;;;;;14.00;9.63;;;15.90;99.80;;;;;;5085953;28;20054;-78
2021/06/30 09:37:08;;;;;;;14.68;10.18;;;15.90;99.70;;;;;;5087859;28;20063;-80
2021/06/30 09:39:54;;;;;;;13.25;10.05;;;15.90;99.80;;;;;;5085222;28;20369;-79
2021/06/30 09:42:28;;;;;;;16.38;10.68;;;15.80;99.40;;;;;;5085328;28;20047;-81
2021/06/30 09:45:13;;;;;;;14.00;9.90;;;15.80;99.90;;;;;;5087396;28;20832;-80
2021/06/30 09:47:51;;;;;;;12.43;9.77;;;15.80;99.90;;;;;;5086000;28;20092;-81
2021/06/30 09:50:17;;;;;;;14.93;8.90;;;15.80;99.80;;;;;;5087839;28;20482;-81
2021/06/30 09:52:46;;;;;;;18.02;9.57;;;15.80;99.70;;;;;;5085358;28;20043;-79
2021/06/30 09:55:30;;;;;;;11.00;7.97;;;15.80;99.50;;;;;;5084157;28;20039;-80
2021/06/30 09:57:58;;;;;;;11.80;9.07;;;15.90;99.00;;;;;;5086524;28;20043;-79
2021/06/30 10:00:29;;;;;;;12.35;8.43;;;15.90;99.60;;;;;;5052251;28;20039;-79
2021/06/30 10:02:58;;;;;;;13.02;8.15;;;15.90;99.90;;;;;;5067942;28;20044;-78
2021/06/30 10:05:34;;;;;;;10.70;7.63;;;16.00;99.90;;;;;;5087679;28;20115;-80
2021/06/30 10:08:14;;;;;;;12.23;8.48;;;16.20;98.60;;;;;;5085141;28;20506;-81
2021/06/30 10:10:47;;;;;;;9.35;8.27;;;16.20;98.30;;;;;;5083813;28;20577;-79
2021/06/30 10:13:14;;;;;;;10.88;8.05;;;16.20;98.10;;;;;;5087575;28;20043;-78
2021/06/30 10:15:41;;;;;;;10.40;8.20;;;16.10;99.00;;;;;;5065479;28;20036;-78
2021/06/30 10:18:07;;;;;;;8.57;6.68;;;16.10;99.40;;;;;;5085659;28;20538;-79
2021/06/30 10:20:33;;;;;;;8.45;7.07;;;16.20;97.90;;;;;;5084338;28;20062;-81
2021/06/30 10:22:59;;;;;;;11.30;7.97;;;16.20;98.20;;;;;;5086305;28;20036;-79
2021/06/30 10:25:26;;;;;;;11.43;7.93;;;16.20;98.70;;;;;;5085174;28;20036;-79
2021/06/30 10:27:54;;;;;;;10.55;8.00;;;16.30;98.00;;;;;;5069676;28;20036;-77
2021/06/30 10:30:20;;;;;;;10.70;8.05;;;16.40;98.70;;;;;;5081031;28;20056;-77
2021/06/30 10:32:57;;;;;;;9.80;7.28;;;16.40;99.30;;;;;;5082443;28;20040;-77
2021/06/30 10:35:32;;;;;;;10.30;7.72;;;16.60;98.90;;;;;;5083810;28;20028;-77
2021/06/30 10:38:02;;;;;;;11.43;7.68;;;16.70;98.60;;;;;;5085088;28;20453;-79
2021/06/30 10:40:33;;;;;;;9.63;6.32;;;16.80;99.10;;;;;;5073964;28;20487;-80
2021/06/30 10:43:13;;;;;;;8.85;5.85;;;16.90;98.20;;;;;;5088066;28;20124;-79
2021/06/30 10:45:40;;;;;;;;;;;16.90;96.60;;;;;;5086771;28;20030;-79
2021/06/30 10:48:16;;;;;;;7.93;6.60;;;16.80;97.00;;;;;;5064050;28;19928;-79
2021/06/30 10:50:44;;;;;;;7.95;6.10;;;16.80;97.20;;;;;;5081968;28;20846;-79
2021/06/30 10:53:11;;;;;;;9.25;7.60;;;16.70;97.00;;;;;;5080651;28;20497;-79
2021/06/30 10:55:38;;;;;;;11.18;6.40;;;16.60;98.10;;;;;;5075242;28;20098;-79
2021/06/30 10:58:18;;;;;;;7.65;5.55;;;16.60;97.70;;;;;;5076280;28;20046;-80
2021/06/30 11:01:02;;;;;;;7.55;5.45;;;16.60;97.20;;;;;;5077201;28;20384;-79
2021/06/30 11:03:33;;;;;;;8.93;6.10;;;16.50;97.60;;;;;;5076835;28;20135;-79
2021/06/30 11:06:17;;;;;;;9.55;7.55;;;16.40;97.50;;;;;;5074852;28;20099;-79
2021/06/30 11:09:08;;;;;;;9.65;6.68;;;16.30;98.30;;;;;;5074686;28;20119;-79
2021/06/30 11:11:34;;;;;;;11.23;7.57;;;16.20;98.60;;;;;;5071300;28;20478;-77
2021/06/30 11:14:07;;;;;;;9.88;6.88;;;16.20;99.10;;;;;;5079873;28;20043;-78
2021/06/30 11:16:43;;;;;;;9.60;7.40;;;16.20;99.00;;;;;;5078230;28;20059;-76
2021/06/30 11:19:15;;;;;;;11.15;7.90;;;16.10;97.80;;;;;;5072933;28;20056;-76
2021/06/30 11:21:53;;;;;;;10.75;7.88;;;16.00;97.50;;;;;;5087576;28;20691;-76
2021/06/30 11:27:22;;;;;;;15.77;9.10;;;15.60;98.50;;;;;;5075724;28;20036;-75
2021/06/30 11:29:56;;;;;;;14.48;8.85;;;15.50;99.10;;;;;;5074589;28;20499;-75
2021/06/30 11:32:38;;;;;;;25.15;11.90;;;15.40;99.10;;;;;;5071817;28;20036;-79
2021/06/30 11:35:13;;;;;;;14.90;9.25;;;15.40;99.70;;;;;;5071092;28;20061;-77
2021/06/30 11:38:00;;;;;;;13.02;8.10;;;15.30;99.90;;;;;;5072575;28;20064;-77
2021/06/30 11:40:38;;;;;;;10.15;7.57;;;15.30;99.70;;;;;;5073322;28;20510;-77
2021/06/30 11:43:15;;;;;;;12.80;8.00;;;15.30;99.80;;;;;;5074158;28;20059;-77
2021/06/30 11:45:42;;;;;;;10.60;7.60;;;15.30;99.20;;;;;;5072477;28;20051;-78
2021/06/30 11:48:11;;;;;;;12.15;8.20;;;15.20;99.00;;;;;;5078245;28;20040;-78
2021/06/30 11:50:55;;;;;;;13.98;8.27;;;15.20;99.30;;;;;;5089124;28;20040;-77
2021/06/30 11:53:43;;;;;;;12.10;8.82;;;15.10;99.20;;;;;;5069801;28;20039;-76
2021/06/30 11:56:11;;;;;;;12.85;7.90;;;15.10;99.90;;;;;;5080316;28;20050;-76
2021/06/30 11:58:51;;;;;;;12.50;9.48;;;15.10;99.90;;;;;;5065504;28;20036;-74
2021/06/30 12:01:22;;;;;;;11.02;8.40;;;15.10;99.90;;;;;;5067989;28;20044;-77
2021/06/30 12:03:48;;;;;;;13.52;9.20;;;15.20;99.90;;;;;;5083391;28;20039;-76
2021/06/30 12:06:30;;;;;;;16.90;9.85;;;15.20;99.90;;;;;;5080251;28;20052;-76
2021/06/30 12:09:09;;;;;;;13.98;10.43;;;15.20;99.90;;;;;;5083303;28;20145;-76
2021/06/30 12:11:38;;;;;;;12.68;8.95;;;15.20;99.90;;;;;;5086122;28;20036;-75
2021/06/30 12:14:28;;;;;;;15.75;9.85;;;15.20;99.90;;;;;;5078561;28;20044;-76
2021/06/30 12:17:05;;;;;;;13.43;10.05;;;15.30;99.90;;;;;;5085369;28;20047;-75
2021/06/30 12:19:37;;;;;;;15.35;9.30;;;15.30;99.90;;;;;;5080833;28;20479;-75
2021/06/30 12:22:30;;;;;;;12.60;8.82;;;15.30;99.90;;;;;;5082396;28;20045;-74
2021/06/30 12:25:03;;;;;;;15.35;10.93;;;15.20;99.90;;;;;;5083149;28;20040;-75
2021/06/30 12:27:40;;;;;;;15.77;11.02;;;15.30;99.90;;;;;;5084318;28;20529;-75
2021/06/30 12:30:07;;;;;;;16.60;11.23;;;15.30;99.90;;;;;;5093674;28;21219;-74
2021/06/30 12:32:43;;;;;;;19.35;12.15;;;15.20;99.90;;;;;;5086649;28;20410;-75
2021/06/30 12:35:15;;;;;;;15.38;11.57;;;15.30;99.90;;;;;;5092255;28;20074;-76
2021/06/30 12:37:43;;;;;;;15.35;11.93;;;15.30;99.90;;;;;;5065591;28;20040;-76
2021/06/30 12:40:11;;;;;;;16.23;11.45;;;15.30;99.90;;;;;;5080796;28;20101;-76